sensor_id;sensor_type;location;lat;lon;timestamp;pressure;altitude;pressure_sealevel;temperature
51149;BMP280;37210;50.058;8.688;2022-12-29T00:01:59;99461.13;;;11.66
51149;BMP280;37210;50.058;8.688;2022-12-29T00:04:28;99456.75;;;11.68
51149;BMP280;37210;50.058;8.688;2022-12-29T00:06:56;99426.41;;;11.54
51149;BMP280;37210;50.058;8.688;2022-12-29T00:09:25;99460.25;;;11.67
51149;BMP280;37210;50.058;8.688;2022-12-29T00:11:53;99462.88;;;11.66
51149;BMP280;37210;50.058;8.688;2022-12-29T00:14:20;99381.63;;;11.20
51149;BMP280;37210;50.058;8.688;2022-12-29T00:17:05;99440.28;;;11.59
51149;BMP280;37210;50.058;8.688;2022-12-29T00:19:34;99431.53;;;11.61
51149;BMP280;37210;50.058;8.688;2022-12-29T00:22:19;99435.25;;;11.47
51149;BMP280;37210;50.058;8.688;2022-12-29T00:25:07;99451.59;;;11.61
51149;BMP280;37210;50.058;8.688;2022-12-29T00:27:53;99458.59;;;11.60
51149;BMP280;37210;50.058;8.688;2022-12-29T00:30:50;99457.03;;;11.50
51149;BMP280;37210;50.058;8.688;2022-12-29T00:33:34;99462.88;;;11.64
51149;BMP280;37210;50.058;8.688;2022-12-29T00:36:23;99457.06;;;11.49
51149;BMP280;37210;50.058;8.688;2022-12-29T00:38:57;99447.53;;;11.45
51149;BMP280;37210;50.058;8.688;2022-12-29T00:41:45;99459.44;;;11.64
51149;BMP280;37210;50.058;8.688;2022-12-29T00:44:30;99463.13;;;11.51
51149;BMP280;37210;50.058;8.688;2022-12-29T00:46:58;99455.03;;;11.64
51149;BMP280;37210;50.058;8.688;2022-12-29T00:49:28;99461.25;;;11.59
51149;BMP280;37210;50.058;8.688;2022-12-29T00:52:00;99450.63;;;11.69
51149;BMP280;37210;50.058;8.688;2022-12-29T00:54:31;99460.34;;;11.61
51149;BMP280;37210;50.058;8.688;2022-12-29T00:57:01;99472.56;;;11.61
51149;BMP280;37210;50.058;8.688;2022-12-29T00:59:30;99468.22;;;11.58
51149;BMP280;37210;50.058;8.688;2022-12-29T01:01:58;99442.22;;;11.48
51149;BMP280;37210;50.058;8.688;2022-12-29T01:04:26;99457.06;;;11.49
51149;BMP280;37210;50.058;8.688;2022-12-29T01:06:53;99458.88;;;11.44
51149;BMP280;37210;50.058;8.688;2022-12-29T01:09:22;99464.81;;;11.55
51149;BMP280;37210;50.058;8.688;2022-12-29T01:12:08;99443.16;;;11.44
51149;BMP280;37210;50.058;8.688;2022-12-29T01:14:37;99451.75;;;11.53
51149;BMP280;37210;50.058;8.688;2022-12-29T01:17:05;99455.38;;;11.45
51149;BMP280;37210;50.058;8.688;2022-12-29T01:19:33;99456.16;;;11.50
51149;BMP280;37210;50.058;8.688;2022-12-29T01:22:01;99459.53;;;11.56
51149;BMP280;37210;50.058;8.688;2022-12-29T01:24:30;99442.72;;;11.71
51149;BMP280;37210;50.058;8.688;2022-12-29T01:26:57;99430.81;;;11.52
51149;BMP280;37210;50.058;8.688;2022-12-29T01:29:24;99455.69;;;11.80
51149;BMP280;37210;50.058;8.688;2022-12-29T01:31:52;99444.72;;;11.54
51149;BMP280;37210;50.058;8.688;2022-12-29T01:34:19;99434.06;;;11.64
51149;BMP280;37210;50.058;8.688;2022-12-29T01:36:47;99432.22;;;11.72
51149;BMP280;37210;50.058;8.688;2022-12-29T01:39:14;99414.97;;;11.59
51149;BMP280;37210;50.058;8.688;2022-12-29T01:41:43;99434.66;;;11.83
51149;BMP280;37210;50.058;8.688;2022-12-29T01:44:46;99427.97;;;11.67
51149;BMP280;37210;50.058;8.688;2022-12-29T01:47:21;99422.78;;;11.61
51149;BMP280;37210;50.058;8.688;2022-12-29T01:49:55;99428.97;;;11.57
51149;BMP280;37210;50.058;8.688;2022-12-29T01:52:27;99426.22;;;11.64
51149;BMP280;37210;50.058;8.688;2022-12-29T01:55:02;99401.34;;;11.41
51149;BMP280;37210;50.058;8.688;2022-12-29T01:57:37;99427.13;;;11.63
51149;BMP280;37210;50.058;8.688;2022-12-29T02:00:10;99407.19;;;11.55
51149;BMP280;37210;50.058;8.688;2022-12-29T02:02:42;99408.00;;;11.58
51149;BMP280;37210;50.058;8.688;2022-12-29T02:05:16;99422.66;;;11.71
51149;BMP280;37210;50.058;8.688;2022-12-29T02:07:50;99430.63;;;11.62
51149;BMP280;37210;50.058;8.688;2022-12-29T02:10:21;99425.31;;;11.68
51149;BMP280;37210;50.058;8.688;2022-12-29T02:12:53;99425.28;;;11.71
51149;BMP280;37210;50.058;8.688;2022-12-29T02:15:42;99412.97;;;11.76
51149;BMP280;37210;50.058;8.688;2022-12-29T02:18:27;99415.75;;;11.64
51149;BMP280;37210;50.058;8.688;2022-12-29T02:21:24;99408.56;;;11.78
51149;BMP280;37210;50.058;8.688;2022-12-29T02:27:56;99424.06;;;11.90
51149;BMP280;37210;50.058;8.688;2022-12-29T02:30:53;99407.53;;;11.85
51149;BMP280;37210;50.058;8.688;2022-12-29T02:33:37;99417.06;;;11.91
51149;BMP280;37210;50.058;8.688;2022-12-29T02:36:19;99424.06;;;11.90
51149;BMP280;37210;50.058;8.688;2022-12-29T02:38:59;99400.28;;;11.99
51149;BMP280;37210;50.058;8.688;2022-12-29T02:41:38;99416.81;;;12.03
51149;BMP280;37210;50.058;8.688;2022-12-29T02:44:16;99396.03;;;11.94
51149;BMP280;37210;50.058;8.688;2022-12-29T02:46:56;99363.72;;;11.93
51149;BMP280;37210;50.058;8.688;2022-12-29T02:49:33;99379.44;;;11.93
51149;BMP280;37210;50.058;8.688;2022-12-29T02:52:05;99398.56;;;11.98
51149;BMP280;37210;50.058;8.688;2022-12-29T02:54:38;99409.28;;;11.86
51149;BMP280;37210;50.058;8.688;2022-12-29T02:57:15;99409.31;;;11.83
51149;BMP280;37210;50.058;8.688;2022-12-29T02:59:57;99394.34;;;11.90
51149;BMP280;37210;50.058;8.688;2022-12-29T03:02:39;99373.59;;;11.79
51149;BMP280;37210;50.058;8.688;2022-12-29T03:05:23;99358.84;;;11.75
51149;BMP280;37210;50.058;8.688;2022-12-29T03:08:05;99393.47;;;11.91
51149;BMP280;37210;50.058;8.688;2022-12-29T03:10:45;99373.63;;;11.78
51149;BMP280;37210;50.058;8.688;2022-12-29T03:13:28;99390.75;;;11.95
51149;BMP280;37210;50.058;8.688;2022-12-29T03:16:21;99389.00;;;11.96
51149;BMP280;37210;50.058;8.688;2022-12-29T03:19:03;99393.41;;;11.94
51149;BMP280;37210;50.058;8.688;2022-12-29T03:21:38;99378.47;;;11.99
51149;BMP280;37210;50.058;8.688;2022-12-29T03:24:31;99385.41;;;12.00
51149;BMP280;37210;50.058;8.688;2022-12-29T03:27:04;99378.38;;;12.02
51149;BMP280;37210;50.058;8.688;2022-12-29T03:29:42;99383.66;;;12.00
51149;BMP280;37210;50.058;8.688;2022-12-29T03:32:20;99356.56;;;12.01
51149;BMP280;37210;50.058;8.688;2022-12-29T03:34:53;99361.75;;;12.04
51149;BMP280;37210;50.058;8.688;2022-12-29T03:37:24;99368.81;;;11.99
51149;BMP280;37210;50.058;8.688;2022-12-29T03:39:57;99327.47;;;11.71
51149;BMP280;37210;50.058;8.688;2022-12-29T03:42:27;99298.75;;;11.68
51149;BMP280;37210;50.058;8.688;2022-12-29T03:44:58;99354.25;;;11.86
51149;BMP280;37210;50.058;8.688;2022-12-29T03:47:25;99367.28;;;11.91
51149;BMP280;37210;50.058;8.688;2022-12-29T03:49:54;99358.22;;;12.07
51149;BMP280;37210;50.058;8.688;2022-12-29T03:52:22;99332.25;;;11.93
51149;BMP280;37210;50.058;8.688;2022-12-29T03:54:51;99340.84;;;12.01
51149;BMP280;37210;50.058;8.688;2022-12-29T03:57:18;99357.13;;;12.17
51149;BMP280;37210;50.058;8.688;2022-12-29T04:00:03;99358.03;;;12.15
51149;BMP280;37210;50.058;8.688;2022-12-29T04:02:41;99235.50;;;11.42
51149;BMP280;37210;50.058;8.688;2022-12-29T04:05:13;99348.34;;;12.20
51149;BMP280;37210;50.058;8.688;2022-12-29T04:07:40;99343.25;;;12.12
51149;BMP280;37210;50.058;8.688;2022-12-29T04:10:08;99286.66;;;12.02
51149;BMP280;37210;50.058;8.688;2022-12-29T04:12:36;99329.88;;;12.26
51149;BMP280;37210;50.058;8.688;2022-12-29T04:15:05;99335.94;;;12.28
51149;BMP280;37210;50.058;8.688;2022-12-29T04:17:33;99319.88;;;12.41
51149;BMP280;37210;50.058;8.688;2022-12-29T04:20:03;99313.25;;;12.25
51149;BMP280;37210;50.058;8.688;2022-12-29T04:22:49;99328.81;;;12.34
51149;BMP280;37210;50.058;8.688;2022-12-29T04:25:25;99323.47;;;12.37
51149;BMP280;37210;50.058;8.688;2022-12-29T04:27:52;99327.69;;;12.44
51149;BMP280;37210;50.058;8.688;2022-12-29T04:30:39;99337.47;;;12.38
51149;BMP280;37210;50.058;8.688;2022-12-29T04:33:14;99337.03;;;12.56
51149;BMP280;37210;50.058;8.688;2022-12-29T04:35:43;99318.22;;;12.37
51149;BMP280;37210;50.058;8.688;2022-12-29T04:38:13;99333.00;;;12.41
51149;BMP280;37210;50.058;8.688;2022-12-29T04:40:42;99316.53;;;12.36
51149;BMP280;37210;50.058;8.688;2022-12-29T04:43:11;99341.56;;;12.51
51149;BMP280;37210;50.058;8.688;2022-12-29T04:45:57;99340.34;;;12.65
51149;BMP280;37210;50.058;8.688;2022-12-29T04:48:30;99331.84;;;12.54
51149;BMP280;37210;50.058;8.688;2022-12-29T04:51:10;99320.44;;;12.57
51149;BMP280;37210;50.058;8.688;2022-12-29T04:53:40;99314.41;;;12.53
51149;BMP280;37210;50.058;8.688;2022-12-29T04:56:08;99318.47;;;12.65
51149;BMP280;37210;50.058;8.688;2022-12-29T04:58:36;99304.72;;;12.55
51149;BMP280;37210;50.058;8.688;2022-12-29T05:01:04;99280.91;;;12.26
51149;BMP280;37210;50.058;8.688;2022-12-29T05:03:32;99348.38;;;12.58
51149;BMP280;37210;50.058;8.688;2022-12-29T05:05:59;99339.44;;;12.66
51149;BMP280;37210;50.058;8.688;2022-12-29T05:08:27;99354.69;;;12.49
51149;BMP280;37210;50.058;8.688;2022-12-29T05:10:57;99337.75;;;12.64
51149;BMP280;37210;50.058;8.688;2022-12-29T05:13:24;99325.03;;;12.47
51149;BMP280;37210;50.058;8.688;2022-12-29T05:15:52;99330.97;;;12.55
51149;BMP280;37210;50.058;8.688;2022-12-29T05:18:22;99328.97;;;12.65
51149;BMP280;37210;50.058;8.688;2022-12-29T05:20:50;99344.81;;;12.60
51149;BMP280;37210;50.058;8.688;2022-12-29T05:23:19;99340.34;;;12.65
51149;BMP280;37210;50.058;8.688;2022-12-29T05:25:53;99341.34;;;12.60
51149;BMP280;37210;50.058;8.688;2022-12-29T05:28:42;99326.91;;;12.41
51149;BMP280;37210;50.058;8.688;2022-12-29T05:31:17;99336.94;;;12.60
51149;BMP280;37210;50.058;8.688;2022-12-29T05:33:45;99330.81;;;12.61
51149;BMP280;37210;50.058;8.688;2022-12-29T05:36:12;99300.91;;;12.70
51149;BMP280;37210;50.058;8.688;2022-12-29T05:38:44;99310.72;;;12.60
51149;BMP280;37210;50.058;8.688;2022-12-29T05:41:12;99313.03;;;12.72
51149;BMP280;37210;50.058;8.688;2022-12-29T05:43:58;99239.00;;;12.25
51149;BMP280;37210;50.058;8.688;2022-12-29T05:46:44;99311.44;;;12.67
51149;BMP280;37210;50.058;8.688;2022-12-29T05:49:35;99317.34;;;12.76
51149;BMP280;37210;50.058;8.688;2022-12-29T05:52:08;99311.97;;;12.82
51149;BMP280;37210;50.058;8.688;2022-12-29T05:54:35;99323.28;;;12.84
51149;BMP280;37210;50.058;8.688;2022-12-29T05:57:08;99307.53;;;12.83
51149;BMP280;37210;50.058;8.688;2022-12-29T05:59:41;99311.00;;;12.85
51149;BMP280;37210;50.058;8.688;2022-12-29T06:02:09;99318.03;;;12.83
51149;BMP280;37210;50.058;8.688;2022-12-29T06:04:38;99306.50;;;12.90
51149;BMP280;37210;50.058;8.688;2022-12-29T06:07:05;99313.75;;;12.80
51149;BMP280;37210;50.058;8.688;2022-12-29T06:09:39;99310.88;;;12.91
51149;BMP280;37210;50.058;8.688;2022-12-29T06:12:08;99317.22;;;12.82
51149;BMP280;37210;50.058;8.688;2022-12-29T06:14:38;99323.03;;;12.94
51149;BMP280;37210;50.058;8.688;2022-12-29T06:17:07;99307.50;;;12.86
51149;BMP280;37210;50.058;8.688;2022-12-29T06:19:35;99310.78;;;12.94
51149;BMP280;37210;50.058;8.688;2022-12-29T06:22:03;99322.97;;;12.97
51149;BMP280;37210;50.058;8.688;2022-12-29T06:24:33;99314.31;;;12.93
51149;BMP280;37210;50.058;8.688;2022-12-29T06:27:01;99316.69;;;13.04
51149;BMP280;37210;50.058;8.688;2022-12-29T06:29:28;99303.69;;;12.98
51149;BMP280;37210;50.058;8.688;2022-12-29T06:31:57;99302.69;;;13.05
51149;BMP280;37210;50.058;8.688;2022-12-29T06:34:26;99315.75;;;13.06
51149;BMP280;37210;50.058;8.688;2022-12-29T06:36:54;99313.03;;;13.11
51149;BMP280;37210;50.058;8.688;2022-12-29T06:39:21;99320.19;;;13.06
51149;BMP280;37210;50.058;8.688;2022-12-29T06:42:00;99326.31;;;13.03
51149;BMP280;37210;50.058;8.688;2022-12-29T06:44:50;99302.03;;;12.95
51149;BMP280;37210;50.058;8.688;2022-12-29T06:47:18;99313.47;;;12.93
51149;BMP280;37210;50.058;8.688;2022-12-29T06:49:47;99303.69;;;12.98
51149;BMP280;37210;50.058;8.688;2022-12-29T06:52:15;99295.97;;;12.92
51149;BMP280;37210;50.058;8.688;2022-12-29T06:54:42;99322.88;;;13.00
51149;BMP280;37210;50.058;8.688;2022-12-29T06:57:09;99326.31;;;13.03
51149;BMP280;37210;50.058;8.688;2022-12-29T06:59:37;99308.84;;;13.02
51149;BMP280;37210;50.058;8.688;2022-12-29T07:02:04;99309.63;;;13.07
51149;BMP280;37210;50.058;8.688;2022-12-29T07:04:31;99316.53;;;13.11
51149;BMP280;37210;50.058;8.688;2022-12-29T07:07:00;99292.19;;;13.03
51149;BMP280;37210;50.058;8.688;2022-12-29T07:09:27;99299.50;;;12.91
51149;BMP280;37210;50.058;8.688;2022-12-29T07:11:54;99295.69;;;13.04
51149;BMP280;37210;50.058;8.688;2022-12-29T07:14:22;99307.19;;;12.98
51149;BMP280;37210;50.058;8.688;2022-12-29T07:16:49;99307.06;;;13.04
51149;BMP280;37210;50.058;8.688;2022-12-29T07:19:17;99288.00;;;12.96
51149;BMP280;37210;50.058;8.688;2022-12-29T07:21:44;99304.47;;;13.03
51149;BMP280;37210;50.058;8.688;2022-12-29T07:24:13;99301.06;;;12.98
51149;BMP280;37210;50.058;8.688;2022-12-29T07:26:40;99310.78;;;12.94
51149;BMP280;37210;50.058;8.688;2022-12-29T07:29:08;99275.25;;;12.81
51149;BMP280;37210;50.058;8.688;2022-12-29T07:31:35;99286.53;;;12.84
51149;BMP280;37210;50.058;8.688;2022-12-29T07:34:02;99305.78;;;12.83
51149;BMP280;37210;50.058;8.688;2022-12-29T07:36:30;99308.13;;;12.96
51149;BMP280;37210;50.058;8.688;2022-12-29T07:38:57;99312.75;;;12.86
51149;BMP280;37210;50.058;8.688;2022-12-29T07:41:26;99315.09;;;12.97
51149;BMP280;37210;50.058;8.688;2022-12-29T07:43:53;99312.53;;;12.94
51149;BMP280;37210;50.058;8.688;2022-12-29T07:46:30;99307.19;;;12.98
51149;BMP280;37210;50.058;8.688;2022-12-29T07:48:58;99292.47;;;12.93
51149;BMP280;37210;50.058;8.688;2022-12-29T07:51:25;99294.81;;;13.05
51149;BMP280;37210;50.058;8.688;2022-12-29T07:53:53;99312.31;;;13.03
51149;BMP280;37210;50.058;8.688;2022-12-29T07:56:20;99308.94;;;12.99
51149;BMP280;37210;50.058;8.688;2022-12-29T07:58:49;99311.31;;;13.10
51149;BMP280;37210;50.058;8.688;2022-12-29T08:01:16;99290.72;;;12.92
51149;BMP280;37210;50.058;8.688;2022-12-29T08:03:43;99328.94;;;13.03
51149;BMP280;37210;50.058;8.688;2022-12-29T08:06:11;99302.03;;;12.94
51149;BMP280;37210;50.058;8.688;2022-12-29T08:08:39;99318.38;;;13.08
51149;BMP280;37210;50.058;8.688;2022-12-29T08:11:06;99318.63;;;12.96
51149;BMP280;37210;50.058;8.688;2022-12-29T08:13:33;99323.63;;;13.08
51149;BMP280;37210;50.058;8.688;2022-12-29T08:16:02;99329.84;;;13.02
51149;BMP280;37210;50.058;8.688;2022-12-29T08:18:30;99343.75;;;13.07
51149;BMP280;37210;50.058;8.688;2022-12-29T08:21:01;99343.59;;;13.13
51149;BMP280;37210;50.058;8.688;2022-12-29T08:23:29;99344.63;;;13.06
51149;BMP280;37210;50.058;8.688;2022-12-29T08:25:58;99349.72;;;13.14
51149;BMP280;37210;50.058;8.688;2022-12-29T08:28:26;99337.75;;;13.01
51149;BMP280;37210;50.058;8.688;2022-12-29T08:30:57;99342.19;;;12.99
51149;BMP280;37210;50.058;8.688;2022-12-29T08:33:26;99355.91;;;13.11
51149;BMP280;37210;50.058;8.688;2022-12-29T08:35:58;99368.25;;;13.06
51149;BMP280;37210;50.058;8.688;2022-12-29T08:38:27;99349.88;;;13.06
51149;BMP280;37210;50.058;8.688;2022-12-29T08:40:56;99364.19;;;13.30
51149;BMP280;37210;50.058;8.688;2022-12-29T08:43:25;99361.81;;;13.19
51149;BMP280;37210;50.058;8.688;2022-12-29T08:45:52;99344.53;;;13.11
51149;BMP280;37210;50.058;8.688;2022-12-29T08:48:20;99367.03;;;13.21
51149;BMP280;37210;50.058;8.688;2022-12-29T08:50:49;99373.88;;;13.28
51149;BMP280;37210;50.058;8.688;2022-12-29T08:53:17;99366.06;;;13.25
51149;BMP280;37210;50.058;8.688;2022-12-29T08:55:46;99360.03;;;13.21
51149;BMP280;37210;50.058;8.688;2022-12-29T08:58:14;99345.34;;;13.13
51149;BMP280;37210;50.058;8.688;2022-12-29T09:00:43;99357.75;;;13.43
51149;BMP280;37210;50.058;8.688;2022-12-29T09:03:11;99366.63;;;13.71
51149;BMP280;37210;50.058;8.688;2022-12-29T09:05:38;99368.09;;;13.49
51149;BMP280;37210;50.058;8.688;2022-12-29T09:08:08;99374.75;;;13.62
51149;BMP280;37210;50.058;8.688;2022-12-29T09:10:35;99334.38;;;13.32
51149;BMP280;37210;50.058;8.688;2022-12-29T09:13:02;99376.69;;;13.54
51149;BMP280;37210;50.058;8.688;2022-12-29T09:15:30;99394.84;;;13.63
51149;BMP280;37210;50.058;8.688;2022-12-29T09:17:57;99398.34;;;13.63
51149;BMP280;37210;50.058;8.688;2022-12-29T09:20:24;99372.84;;;13.35
51149;BMP280;37210;50.058;8.688;2022-12-29T09:22:52;99390.66;;;13.21
51149;BMP280;37210;50.058;8.688;2022-12-29T09:25:21;99414.81;;;13.36
51149;BMP280;37210;50.058;8.688;2022-12-29T09:27:50;99410.34;;;13.40
51149;BMP280;37210;50.058;8.688;2022-12-29T09:30:20;99423.53;;;12.99
51149;BMP280;37210;50.058;8.688;2022-12-29T09:32:49;99424.66;;;12.89
51149;BMP280;37210;50.058;8.688;2022-12-29T09:35:17;99432.72;;;12.79
51149;BMP280;37210;50.058;8.688;2022-12-29T09:37:44;99433.50;;;12.84
51149;BMP280;37210;50.058;8.688;2022-12-29T09:40:24;99435.16;;;12.87
51149;BMP280;37210;50.058;8.688;2022-12-29T09:43:17;99440.34;;;12.50
51149;BMP280;37210;50.058;8.688;2022-12-29T09:45:59;99439.47;;;12.51
51149;BMP280;37210;50.058;8.688;2022-12-29T09:48:37;99451.84;;;12.43
51149;BMP280;37210;50.058;8.688;2022-12-29T09:51:11;99456.47;;;12.31
51149;BMP280;37210;50.058;8.688;2022-12-29T09:53:45;99447.81;;;12.27
51149;BMP280;37210;50.058;8.688;2022-12-29T09:56:20;99462.09;;;12.11
51149;BMP280;37210;50.058;8.688;2022-12-29T09:58:54;99468.06;;;12.19
51149;BMP280;37210;50.058;8.688;2022-12-29T10:01:29;99454.63;;;11.90
51149;BMP280;37210;50.058;8.688;2022-12-29T10:04:01;99461.25;;;12.09
51149;BMP280;37210;50.058;8.688;2022-12-29T10:06:33;99464.13;;;11.97
51149;BMP280;37210;50.058;8.688;2022-12-29T10:09:13;99469.50;;;11.88
51149;BMP280;37210;50.058;8.688;2022-12-29T10:11:56;99465.78;;;11.49
51149;BMP280;37210;50.058;8.688;2022-12-29T10:14:46;99488.41;;;11.53
51149;BMP280;37210;50.058;8.688;2022-12-29T10:17:31;99487.72;;;11.41
51149;BMP280;37210;50.058;8.688;2022-12-29T10:20:25;99478.78;;;11.54
51149;BMP280;37210;50.058;8.688;2022-12-29T10:23:12;99452.78;;;11.42
51149;BMP280;37210;50.058;8.688;2022-12-29T10:25:48;99464.69;;;11.61
51149;BMP280;37210;50.058;8.688;2022-12-29T10:28:24;99469.00;;;11.66
51149;BMP280;37210;50.058;8.688;2022-12-29T10:30:59;99464.28;;;11.88
51149;BMP280;37210;50.058;8.688;2022-12-29T10:33:34;99477.56;;;11.77
51149;BMP280;37210;50.058;8.688;2022-12-29T10:36:12;99482.31;;;11.53
51149;BMP280;37210;50.058;8.688;2022-12-29T10:38:50;99440.72;;;11.35
51149;BMP280;37210;50.058;8.688;2022-12-29T10:41:28;99474.25;;;11.66
51149;BMP280;37210;50.058;8.688;2022-12-29T10:44:09;99478.41;;;11.78
51149;BMP280;37210;50.058;8.688;2022-12-29T10:46:42;99476.72;;;11.75
51149;BMP280;37210;50.058;8.688;2022-12-29T10:49:14;99477.72;;;11.65
51149;BMP280;37210;50.058;8.688;2022-12-29T10:51:46;99478.59;;;11.64
51149;BMP280;37210;50.058;8.688;2022-12-29T10:54:21;99439.25;;;11.72
51149;BMP280;37210;50.058;8.688;2022-12-29T10:56:56;99475.00;;;11.74
51149;BMP280;37210;50.058;8.688;2022-12-29T10:59:31;99477.94;;;12.05
51149;BMP280;37210;50.058;8.688;2022-12-29T11:02:12;99416.00;;;11.51
51149;BMP280;37210;50.058;8.688;2022-12-29T11:04:55;99457.88;;;12.02
51149;BMP280;37210;50.058;8.688;2022-12-29T11:07:28;99474.63;;;11.94
51149;BMP280;37210;50.058;8.688;2022-12-29T11:10:16;99469.16;;;12.06
51149;BMP280;37210;50.058;8.688;2022-12-29T11:12:56;99476.94;;;12.11
51149;BMP280;37210;50.058;8.688;2022-12-29T11:15:26;99460.16;;;12.22
51149;BMP280;37210;50.058;8.688;2022-12-29T11:17:57;99468.78;;;12.27
51149;BMP280;37210;50.058;8.688;2022-12-29T11:20:31;99436.69;;;12.15
51149;BMP280;37210;50.058;8.688;2022-12-29T11:23:01;99470.53;;;12.28
51149;BMP280;37210;50.058;8.688;2022-12-29T11:25:29;99473.97;;;12.30
51149;BMP280;37210;50.058;8.688;2022-12-29T11:27:59;99478.25;;;12.34
51149;BMP280;37210;50.058;8.688;2022-12-29T11:30:31;99488.88;;;12.28
51149;BMP280;37210;50.058;8.688;2022-12-29T11:33:03;99480.84;;;12.36
51149;BMP280;37210;50.058;8.688;2022-12-29T11:35:34;99442.63;;;12.23
51149;BMP280;37210;50.058;8.688;2022-12-29T11:38:18;99478.59;;;12.60
51149;BMP280;37210;50.058;8.688;2022-12-29T11:40:47;99468.19;;;12.57
51149;BMP280;37210;50.058;8.688;2022-12-29T11:43:22;99483.72;;;12.66
51149;BMP280;37210;50.058;8.688;2022-12-29T11:45:56;99466.97;;;12.73
51149;BMP280;37210;50.058;8.688;2022-12-29T11:48:26;99445.53;;;12.52
51149;BMP280;37210;50.058;8.688;2022-12-29T11:50:58;99483.50;;;12.77
51149;BMP280;37210;50.058;8.688;2022-12-29T11:53:37;99467.47;;;12.91
51149;BMP280;37210;50.058;8.688;2022-12-29T11:56:12;99466.56;;;12.92
51149;BMP280;37210;50.058;8.688;2022-12-29T11:58:43;99454.50;;;12.83
51149;BMP280;37210;50.058;8.688;2022-12-29T12:01:18;99456.09;;;12.90
51149;BMP280;37210;50.058;8.688;2022-12-29T12:03:56;99405.38;;;12.51
51149;BMP280;37210;50.058;8.688;2022-12-29T12:06:31;99460.69;;;12.80
51149;BMP280;37210;50.058;8.688;2022-12-29T12:09:08;99437.84;;;12.85
51149;BMP280;37210;50.058;8.688;2022-12-29T12:11:42;99456.06;;;12.92
51149;BMP280;37210;50.058;8.688;2022-12-29T12:14:15;99432.91;;;12.70
51149;BMP280;37210;50.058;8.688;2022-12-29T12:17:12;99457.75;;;12.94
51149;BMP280;37210;50.058;8.688;2022-12-29T12:19:46;99440.63;;;12.78
51149;BMP280;37210;50.058;8.688;2022-12-29T12:22:25;99463.69;;;13.02
51149;BMP280;37210;50.058;8.688;2022-12-29T12:25:02;99462.84;;;13.02
51149;BMP280;37210;50.058;8.688;2022-12-29T12:27:39;99446.63;;;12.84
51149;BMP280;37210;50.058;8.688;2022-12-29T12:30:17;99466.44;;;12.98
51149;BMP280;37210;50.058;8.688;2022-12-29T12:32:52;99474.69;;;13.21
51149;BMP280;37210;50.058;8.688;2022-12-29T12:35:28;99467.72;;;13.20
51149;BMP280;37210;50.058;8.688;2022-12-29T12:38:14;99443.38;;;13.13
51149;BMP280;37210;50.058;8.688;2022-12-29T12:41:06;99420.97;;;12.96
51149;BMP280;37210;50.058;8.688;2022-12-29T12:43:42;99460.78;;;13.17
51149;BMP280;37210;50.058;8.688;2022-12-29T12:46:22;99456.44;;;13.15
51149;BMP280;37210;50.058;8.688;2022-12-29T12:52:24;99442.59;;;13.08
51149;BMP280;37210;50.058;8.688;2022-12-29T12:55:28;99452.16;;;13.11
51149;BMP280;37210;50.058;8.688;2022-12-29T12:58:11;99417.34;;;12.63
51149;BMP280;37210;50.058;8.688;2022-12-29T13:00:55;99455.09;;;12.96
51149;BMP280;37210;50.058;8.688;2022-12-29T13:03:44;99453.53;;;12.89
51149;BMP280;37210;50.058;8.688;2022-12-29T13:06:35;99393.81;;;12.60
51149;BMP280;37210;50.058;8.688;2022-12-29T13:09:28;99450.56;;;13.05
51149;BMP280;37210;50.058;8.688;2022-12-29T13:12:16;99440.88;;;13.07
51149;BMP280;37210;50.058;8.688;2022-12-29T13:15:00;99452.81;;;13.22
51149;BMP280;37210;50.058;8.688;2022-12-29T13:17:41;99432.53;;;12.87
51149;BMP280;37210;50.058;8.688;2022-12-29T13:20:22;99410.13;;;12.74
51149;BMP280;37210;50.058;8.688;2022-12-29T13:23:04;99410.66;;;12.88
51149;BMP280;37210;50.058;8.688;2022-12-29T13:25:46;99442.34;;;13.19
51149;BMP280;37210;50.058;8.688;2022-12-29T13:28:24;99454.63;;;13.18
51149;BMP280;37210;50.058;8.688;2022-12-29T13:31:00;99412.88;;;13.08
51149;BMP280;37210;50.058;8.688;2022-12-29T13:36:19;99439.19;;;13.03
51149;BMP280;37210;50.058;8.688;2022-12-29T13:39:02;99445.25;;;13.07
51149;BMP280;37210;50.058;8.688;2022-12-29T13:41:41;99459.25;;;13.07
51149;BMP280;37210;50.058;8.688;2022-12-29T13:44:16;99455.88;;;13.01
51149;BMP280;37210;50.058;8.688;2022-12-29T13:46:46;99459.22;;;13.09
51149;BMP280;37210;50.058;8.688;2022-12-29T13:49:17;99462.66;;;13.11
51149;BMP280;37210;50.058;8.688;2022-12-29T13:51:48;99456.59;;;13.09
51149;BMP280;37210;50.058;8.688;2022-12-29T13:54:27;99465.31;;;13.11
51149;BMP280;37210;50.058;8.688;2022-12-29T13:57:08;99453.63;;;13.24
51149;BMP280;37210;50.058;8.688;2022-12-29T13:59:48;99455.66;;;13.11
51149;BMP280;37210;50.058;8.688;2022-12-29T14:02:26;99465.16;;;13.18
51149;BMP280;37210;50.058;8.688;2022-12-29T14:05:02;99460.78;;;13.17
51149;BMP280;37210;50.058;8.688;2022-12-29T14:07:37;99465.63;;;13.34
51149;BMP280;37210;50.058;8.688;2022-12-29T14:10:26;99464.31;;;13.15
51149;BMP280;37210;50.058;8.688;2022-12-29T14:13:02;99476.19;;;13.31
51149;BMP280;37210;50.058;8.688;2022-12-29T14:15:31;99409.06;;;12.81
51149;BMP280;37210;50.058;8.688;2022-12-29T14:18:04;99471.09;;;13.26
51149;BMP280;37210;50.058;8.688;2022-12-29T14:20:40;99471.28;;;13.17
51149;BMP280;37210;50.058;8.688;2022-12-29T14:23:26;99491.50;;;13.12
51149;BMP280;37210;50.058;8.688;2022-12-29T14:26:33;99481.25;;;13.00
51149;BMP280;37210;50.058;8.688;2022-12-29T14:32:39;99500.22;;;13.14
51149;BMP280;37210;50.058;8.688;2022-12-29T14:35:40;99474.66;;;12.82
51149;BMP280;37210;50.058;8.688;2022-12-29T14:38:17;99509.00;;;13.13
51149;BMP280;37210;50.058;8.688;2022-12-29T14:40:48;99514.44;;;13.04
51149;BMP280;37210;50.058;8.688;2022-12-29T14:43:25;99493.03;;;12.81
51149;BMP280;37210;50.058;8.688;2022-12-29T14:45:57;99497.41;;;12.82
51149;BMP280;37210;50.058;8.688;2022-12-29T14:48:34;99514.44;;;13.06
51149;BMP280;37210;50.058;8.688;2022-12-29T14:51:30;99522.50;;;12.95
51149;BMP280;37210;50.058;8.688;2022-12-29T14:54:40;99519.94;;;12.92
51149;BMP280;37210;50.058;8.688;2022-12-29T14:57:19;99523.19;;;13.05
51149;BMP280;37210;50.058;8.688;2022-12-29T14:59:58;99515.81;;;12.80
51149;BMP280;37210;50.058;8.688;2022-12-29T15:02:35;99503.66;;;12.76
51149;BMP280;37210;50.058;8.688;2022-12-29T15:05:23;99506.88;;;12.89